Time;durP1;ratioP1;P1;durP2;ratioP2;P2;SDS_P1;SDS_P2;PMS_P1;PMS_P2;Temp;Humidity;BMP_temperature;BMP_pressure;BME280_temperature;BME280_humidity;BME280_pressure;Samples;Min_cycle;Max_cycle;Signal;HPM_P1;HPM_P2
2022/06/13 00:00:52;;;;;;;12.60;4.15;;;15.90;99.90;;;;;;5053605;28;20048;-72
2022/06/13 00:03:18;;;;;;;12.18;4.30;;;15.80;99.90;;;;;;5053847;28;20506;-72
2022/06/13 00:05:44;;;;;;;9.85;3.80;;;15.70;99.90;;;;;;5053797;28;20365;-72
2022/06/13 00:08:09;;;;;;;16.08;3.92;;;15.80;99.90;;;;;;5036898;28;20053;-73
2022/06/13 00:10:36;;;;;;;11.25;4.20;;;15.80;99.90;;;;;;5053759;28;20052;-72
2022/06/13 00:13:02;;;;;;;13.25;4.50;;;15.80;99.90;;;;;;5053454;28;20512;-73
2022/06/13 00:15:29;;;;;;;7.88;3.67;;;15.60;99.90;;;;;;5053002;28;20057;-73
2022/06/13 00:17:54;;;;;;;11.32;4.05;;;15.70;99.90;;;;;;5053414;28;20495;-73
2022/06/13 00:20:20;;;;;;;8.43;3.75;;;15.60;99.90;;;;;;5053563;28;20037;-73
2022/06/13 00:22:46;;;;;;;13.38;4.35;;;15.60;99.90;;;;;;5069477;28;20079;-72
2022/06/13 00:25:11;;;;;;;9.10;4.03;;;15.60;99.90;;;;;;5054528;28;20488;-72
2022/06/13 00:27:38;;;;;;;13.82;4.38;;;15.60;99.90;;;;;;5053192;28;20480;-73
2022/06/13 00:30:06;;;;;;;14.27;4.57;;;15.60;99.90;;;;;;5053719;28;20057;-73
2022/06/13 00:32:32;;;;;;;13.52;3.90;;;15.60;99.90;;;;;;5053147;28;20051;-73
2022/06/13 00:34:58;;;;;;;11.00;3.83;;;15.60;99.90;;;;;;5053000;28;20066;-73
2022/06/13 00:37:23;;;;;;;12.02;4.10;;;15.60;99.90;;;;;;5053288;28;20060;-73
2022/06/13 00:39:49;;;;;;;10.77;4.15;;;15.60;99.90;;;;;;5036438;28;20047;-73
2022/06/13 00:42:19;;;;;;;15.73;4.15;;;15.50;99.90;;;;;;5052757;28;20052;-73
2022/06/13 00:45:08;;;;;;;11.48;3.97;;;15.50;99.90;;;;;;5053997;28;20049;-72
2022/06/13 00:47:35;;;;;;;9.93;4.47;;;15.50;99.90;;;;;;5052308;28;20052;-72
2022/06/13 00:50:04;;;;;;;13.57;4.45;;;15.40;99.90;;;;;;5052890;28;20053;-72
2022/06/13 00:52:57;;;;;;;12.43;3.95;;;15.50;99.90;;;;;;5053568;28;20464;-73
2022/06/13 00:55:32;;;;;;;13.90;4.25;;;15.60;99.90;;;;;;5051046;28;20057;-72
2022/06/13 00:58:00;;;;;;;14.27;4.63;;;15.60;99.90;;;;;;5052863;28;20072;-73
2022/06/13 01:00:26;;;;;;;12.45;4.32;;;15.60;99.90;;;;;;5052785;28;20041;-73
2022/06/13 01:02:54;;;;;;;10.95;4.10;;;15.60;99.90;;;;;;5052320;28;20057;-73
2022/06/13 01:05:27;;;;;;;12.50;3.95;;;15.60;99.90;;;;;;5052643;28;20434;-73
2022/06/13 01:07:54;;;;;;;15.90;4.40;;;15.60;99.90;;;;;;5052817;28;20057;-72
2022/06/13 01:13:08;;;;;;;8.85;4.25;;;15.60;99.90;;;;;;5052558;28;20541;-73
2022/06/13 01:16:00;;;;;;;11.23;4.45;;;15.60;99.90;;;;;;5052775;28;20385;-73
2022/06/13 01:18:42;;;;;;;14.55;4.40;;;15.60;99.90;;;;;;5053141;28;20079;-73
2022/06/13 01:21:17;;;;;;;12.43;4.50;;;15.60;99.90;;;;;;5052940;28;20582;-73
2022/06/13 01:24:12;;;;;;;14.65;5.18;;;15.60;99.90;;;;;;5053124;28;20080;-73
2022/06/13 01:26:58;;;;;;;14.70;4.90;;;15.60;99.90;;;;;;5052759;28;20449;-73
2022/06/13 01:29:42;;;;;;;11.88;4.22;;;15.50;99.90;;;;;;5053343;28;20088;-72
2022/06/13 01:32:34;;;;;;;14.20;4.90;;;15.60;99.90;;;;;;5052447;28;20063;-73
2022/06/13 01:35:29;;;;;;;16.50;5.13;;;15.60;99.90;;;;;;5069247;28;20094;-73
2022/06/13 01:38:04;;;;;;;14.05;4.40;;;15.50;99.90;;;;;;5052730;28;20049;-73
2022/06/13 01:40:37;;;;;;;16.98;5.38;;;15.40;99.90;;;;;;5035522;28;20049;-73
2022/06/13 01:43:22;;;;;;;17.08;5.25;;;15.40;99.90;;;;;;5052136;28;20098;-72
2022/06/13 01:46:28;;;;;;;14.55;4.68;;;15.40;99.90;;;;;;5051691;28;20057;-73
2022/06/13 01:49:23;;;;;;;16.48;5.03;;;15.50;99.90;;;;;;5052292;28;20084;-74
2022/06/13 01:52:08;;;;;;;11.95;4.95;;;15.50;99.90;;;;;;5069337;28;20053;-73
2022/06/13 01:55:03;;;;;;;14.23;5.63;;;15.40;99.90;;;;;;5068893;28;20110;-72
2022/06/13 01:57:42;;;;;;;15.07;4.80;;;15.60;99.90;;;;;;5052041;28;20391;-73
2022/06/13 02:00:24;;;;;;;13.27;4.30;;;15.50;99.90;;;;;;5056801;28;20052;-73
2022/06/13 02:03:16;;;;;;;11.88;5.25;;;15.50;99.90;;;;;;5072595;28;20045;-73
2022/06/13 02:06:14;;;;;;;11.02;4.47;;;15.60;99.90;;;;;;5055925;28;20048;-73
2022/06/13 02:08:44;;;;;;;11.88;4.90;;;15.60;99.90;;;;;;5047064;28;20111;-73
2022/06/13 02:11:39;;;;;;;10.80;4.80;;;15.60;99.90;;;;;;5072452;28;20470;-73
2022/06/13 02:14:10;;;;;;;18.60;5.07;;;15.60;99.90;;;;;;5039140;28;20103;-74
2022/06/13 02:16:44;;;;;;;12.52;5.72;;;15.60;99.90;;;;;;5055605;28;20059;-73
2022/06/13 02:19:22;;;;;;;13.75;5.10;;;15.60;99.90;;;;;;5055793;28;20391;-73
2022/06/13 02:21:54;;;;;;;14.57;5.63;;;15.60;99.90;;;;;;5055886;28;20115;-73
2022/06/13 02:24:24;;;;;;;14.63;5.25;;;15.70;99.90;;;;;;5055636;28;20053;-73
2022/06/13 02:26:52;;;;;;;12.82;5.30;;;15.70;99.90;;;;;;5055471;28;20092;-73
2022/06/13 02:29:34;;;;;;;15.00;5.50;;;15.60;99.90;;;;;;5055381;28;20049;-73
2022/06/13 02:32:11;;;;;;;11.90;5.75;;;15.70;99.90;;;;;;5039078;28;20048;-73
2022/06/13 02:34:45;;;;;;;15.13;5.85;;;15.70;99.90;;;;;;5039116;28;20096;-73
2022/06/13 02:37:24;;;;;;;13.05;5.93;;;15.70;99.90;;;;;;5071793;28;20045;-73
2022/06/13 02:40:01;;;;;;;13.38;6.38;;;15.80;99.90;;;;;;5039134;28;20057;-73
2022/06/13 02:42:39;;;;;;;18.27;6.05;;;15.70;99.90;;;;;;5056109;28;20519;-73
2022/06/13 02:45:15;;;;;;;17.75;6.10;;;15.80;99.90;;;;;;5054750;28;20049;-73
2022/06/13 02:48:04;;;;;;;17.40;6.00;;;15.80;99.90;;;;;;5055109;28;20127;-73
2022/06/13 02:50:53;;;;;;;17.90;6.40;;;15.90;99.90;;;;;;5049381;28;20403;-73
2022/06/13 02:53:40;;;;;;;16.83;6.75;;;15.90;99.90;;;;;;5055194;28;20110;-73
2022/06/13 02:56:12;;;;;;;;;;;16.00;99.90;;;;;;5055695;28;20045;-73
2022/06/13 02:59:01;;;;;;;20.58;6.45;;;15.90;99.90;;;;;;5054929;28;19947;-73
2022/06/13 03:01:39;;;;;;;22.02;7.55;;;16.00;99.90;;;;;;5055057;28;20514;-73
2022/06/13 03:04:17;;;;;;;12.93;5.97;;;16.00;99.90;;;;;;5054895;28;20045;-73
2022/06/13 03:06:57;;;;;;;23.88;8.02;;;15.90;99.90;;;;;;5054947;28;20056;-73
2022/06/13 03:09:29;;;;;;;20.73;6.72;;;16.00;99.90;;;;;;5054762;28;20048;-73
2022/06/13 03:12:12;;;;;;;22.65;8.30;;;15.90;99.90;;;;;;5054648;28;20048;-73
2022/06/13 03:14:53;;;;;;;20.27;7.22;;;15.80;99.90;;;;;;5054708;28;20094;-73
2022/06/13 03:17:41;;;;;;;13.70;6.65;;;15.70;99.90;;;;;;5070995;28;20088;-73
2022/06/13 03:20:21;;;;;;;16.05;6.60;;;15.70;99.90;;;;;;5054540;28;20229;-73
2022/06/13 03:23:02;;;;;;;16.70;7.18;;;15.80;99.90;;;;;;5053950;28;20198;-73
2022/06/13 03:25:49;;;;;;;19.92;6.32;;;15.90;99.90;;;;;;5054442;28;20480;-73
2022/06/13 03:28:19;;;;;;;;;;;15.90;99.90;;;;;;5055923;28;20052;-73
2022/06/13 03:30:56;;;;;;;16.90;6.30;;;15.90;99.90;;;;;;5055579;28;19920;-73
2022/06/13 03:33:42;;;;;;;14.30;6.05;;;15.80;99.90;;;;;;5071088;28;20060;-73
2022/06/13 03:36:20;;;;;;;19.73;6.15;;;15.80;99.90;;;;;;5071505;28;20049;-73
2022/06/13 03:39:11;;;;;;;19.80;6.22;;;15.80;99.90;;;;;;5054228;28;20141;-73
2022/06/13 03:41:41;;;;;;;19.65;5.70;;;15.80;99.90;;;;;;5055133;28;20041;-73
2022/06/13 03:44:17;;;;;;;14.68;5.05;;;15.80;99.90;;;;;;5054497;28;20049;-73
2022/06/13 03:46:52;;;;;;;;;;;15.80;99.90;;;;;;5054162;28;20044;-73
2022/06/13 03:49:32;;;;;;;17.90;5.80;;;15.90;99.90;;;;;;5071308;28;19947;-73
2022/06/13 03:52:00;;;;;;;17.35;5.10;;;15.90;99.90;;;;;;5054864;28;20045;-73
2022/06/13 03:54:34;;;;;;;13.18;5.10;;;15.90;99.90;;;;;;5053918;28;20571;-73
2022/06/13 03:57:12;;;;;;;14.95;4.95;;;15.90;99.90;;;;;;5054579;28;20053;-73
2022/06/13 03:59:49;;;;;;;19.25;6.43;;;16.00;99.90;;;;;;5053684;28;20483;-73
2022/06/13 04:02:18;;;;;;;12.02;5.05;;;16.00;99.90;;;;;;5070273;28;20052;-73
2022/06/13 04:04:47;;;;;;;19.60;6.20;;;15.90;99.90;;;;;;5053526;28;20086;-73
2022/06/13 04:07:13;;;;;;;12.75;4.68;;;16.00;99.90;;;;;;5053763;28;20484;-73
2022/06/13 04:09:51;;;;;;;16.83;5.05;;;16.00;99.90;;;;;;5053872;28;20086;-73
2022/06/13 04:12:48;;;;;;;12.48;4.70;;;16.00;99.90;;;;;;5053614;28;20059;-73
2022/06/13 04:16:11;;;;;;;15.00;5.43;;;16.00;99.90;;;;;;5047067;28;20061;-73
2022/06/13 04:18:54;;;;;;;14.30;4.40;;;15.90;99.90;;;;;;5015955;28;20555;-73
2022/06/13 04:21:37;;;;;;;17.02;5.20;;;16.00;99.90;;;;;;5015301;28;20057;-73
2022/06/13 04:24:25;;;;;;;20.63;5.32;;;15.90;99.90;;;;;;5040990;28;20128;-72
2022/06/13 04:27:13;;;;;;;19.40;5.70;;;15.70;99.90;;;;;;5053120;28;20048;-73
2022/06/13 04:29:50;;;;;;;15.43;4.88;;;15.60;99.90;;;;;;5053218;28;20132;-74
2022/06/13 04:32:21;;;;;;;15.75;4.32;;;15.60;99.90;;;;;;5053492;28;20075;-72
2022/06/13 04:34:50;;;;;;;12.10;4.55;;;15.60;99.90;;;;;;5054340;28;20477;-73
2022/06/13 04:37:18;;;;;;;14.55;4.07;;;15.60;99.90;;;;;;5053325;28;20048;-73
2022/06/13 04:39:47;;;;;;;12.38;3.88;;;15.60;99.90;;;;;;5052970;28;20484;-73
2022/06/13 04:42:16;;;;;;;12.43;3.70;;;15.60;99.90;;;;;;5052832;28;20063;-73
2022/06/13 04:44:43;;;;;;;15.23;3.65;;;15.50;99.90;;;;;;5034468;28;20049;-74
2022/06/13 04:47:13;;;;;;;10.05;3.40;;;15.60;99.90;;;;;;5052728;28;20049;-73
2022/06/13 04:49:53;;;;;;;11.68;3.00;;;15.70;99.90;;;;;;5053108;28;20049;-72
2022/06/13 04:52:28;;;;;;;10.25;3.25;;;15.70;99.90;;;;;;5052964;28;20045;-73
2022/06/13 04:55:05;;;;;;;14.23;3.42;;;15.60;99.90;;;;;;5053138;28;20063;-73
2022/06/13 04:57:32;;;;;;;11.30;3.13;;;15.70;99.90;;;;;;5069793;28;20055;-72
2022/06/13 04:59:58;;;;;;;10.05;3.30;;;15.70;99.90;;;;;;5053801;28;20136;-73
2022/06/13 05:02:38;;;;;;;12.27;2.97;;;15.70;99.90;;;;;;5035866;28;20179;-72
2022/06/13 05:05:11;;;;;;;6.88;2.58;;;15.80;99.90;;;;;;5069527;28;20106;-73
2022/06/13 05:07:37;;;;;;;15.07;3.17;;;16.10;99.90;;;;;;5069695;28;20057;-72
2022/06/13 05:10:10;;;;;;;9.38;2.90;;;16.20;99.90;;;;;;5052541;28;20063;-72
2022/06/13 05:12:45;;;;;;;9.95;2.50;;;16.00;99.90;;;;;;5052533;28;20059;-72
2022/06/13 05:15:29;;;;;;;8.93;2.58;;;15.80;99.90;;;;;;5069172;28;20052;-73
2022/06/13 05:18:29;;;;;;;10.60;2.67;;;15.60;99.90;;;;;;5053625;28;20549;-73
2022/06/13 05:21:06;;;;;;;12.05;2.55;;;15.40;99.90;;;;;;5052745;28;20076;-73
2022/06/13 05:23:47;;;;;;;10.30;2.20;;;15.10;99.90;;;;;;5052100;28;20503;-73
2022/06/13 05:26:13;;;;;;;6.82;2.25;;;15.00;99.90;;;;;;5052607;28;20060;-73
2022/06/13 05:28:38;;;;;;;5.72;2.08;;;15.00;99.90;;;;;;5052447;28;20049;-73
2022/06/13 05:31:18;;;;;;;7.90;1.38;;;15.00;99.90;;;;;;5053375;28;20502;-73
2022/06/13 05:33:46;;;;;;;5.18;1.55;;;14.90;99.90;;;;;;5052366;28;20052;-72
2022/06/13 05:36:16;;;;;;;4.50;1.50;;;14.80;99.90;;;;;;5052202;28;20095;-73
2022/06/13 05:38:44;;;;;;;7.80;1.48;;;14.80;99.90;;;;;;5053274;28;20144;-73
2022/06/13 05:41:10;;;;;;;4.57;1.40;;;14.80;99.90;;;;;;5035507;28;20075;-73
2022/06/13 05:43:36;;;;;;;7.28;1.48;;;14.80;99.90;;;;;;5052702;28;20480;-72
2022/06/13 05:46:04;;;;;;;3.53;1.30;;;14.90;99.90;;;;;;5052614;28;20464;-73
2022/06/13 05:48:30;;;;;;;8.45;1.17;;;15.10;99.90;;;;;;5052212;28;20081;-73
2022/06/13 05:50:56;;;;;;;5.68;1.45;;;15.20;99.90;;;;;;5051956;28;20469;-73
2022/06/13 05:53:24;;;;;;;7.13;1.67;;;15.30;99.90;;;;;;5035616;28;20103;-73
2022/06/13 05:55:55;;;;;;;3.92;1.10;;;15.50;99.90;;;;;;5052234;28;20049;-72
2022/06/13 05:58:22;;;;;;;4.40;1.15;;;15.60;99.90;;;;;;5051997;28;20060;-72
2022/06/13 06:00:54;;;;;;;6.43;1.35;;;15.90;99.90;;;;;;5052235;28;20048;-73
2022/06/13 06:03:20;;;;;;;7.68;1.70;;;16.20;99.90;;;;;;5052369;28;20407;-72
2022/06/13 06:05:47;;;;;;;3.50;1.10;;;16.00;99.90;;;;;;5051733;28;20048;-73
2022/06/13 06:08:17;;;;;;;4.32;1.00;;;16.00;99.90;;;;;;5052176;28;20064;-73
2022/06/13 06:10:43;;;;;;;7.40;1.30;;;15.80;99.90;;;;;;5052133;28;20045;-72
2022/06/13 06:13:12;;;;;;;5.32;1.10;;;15.80;99.90;;;;;;5035551;28;20075;-73
2022/06/13 06:15:39;;;;;;;7.45;1.25;;;15.90;99.90;;;;;;5051289;28;20057;-73
2022/06/13 06:18:05;;;;;;;4.43;1.02;;;16.10;99.90;;;;;;5035360;28;20045;-73
2022/06/13 06:20:30;;;;;;;3.75;0.85;;;16.30;99.90;;;;;;5051710;28;20438;-73
2022/06/13 06:22:56;;;;;;;9.43;1.10;;;16.30;99.90;;;;;;5051610;28;20053;-73
2022/06/13 06:25:22;;;;;;;6.32;1.35;;;16.00;99.90;;;;;;5068448;28;20503;-73
2022/06/13 06:27:47;;;;;;;6.35;1.02;;;15.90;99.90;;;;;;5051845;28;20053;-73
2022/06/13 06:30:17;;;;;;;7.43;1.00;;;16.00;99.90;;;;;;5051985;28;20098;-73
2022/06/13 06:32:44;;;;;;;7.65;1.10;;;16.00;99.90;;;;;;5051512;28;20107;-73
2022/06/13 06:35:10;;;;;;;6.65;1.30;;;16.10;99.90;;;;;;5051615;28;20538;-73
2022/06/13 06:37:41;;;;;;;7.40;1.10;;;16.10;99.90;;;;;;5051661;28;20045;-73
2022/06/13 06:40:07;;;;;;;4.85;1.15;;;16.20;99.90;;;;;;5052873;28;20456;-72
2022/06/13 06:42:34;;;;;;;7.32;0.98;;;16.40;99.90;;;;;;5051393;28;20045;-72
2022/06/13 06:44:59;;;;;;;3.15;0.70;;;16.50;99.90;;;;;;5052086;28;20048;-73
2022/06/13 06:47:25;;;;;;;6.28;1.08;;;16.60;99.90;;;;;;5055655;28;20099;-73
2022/06/13 06:49:51;;;;;;;6.85;1.33;;;16.50;99.90;;;;;;5055246;28;20053;-73
2022/06/13 06:52:16;;;;;;;5.22;1.00;;;16.70;99.90;;;;;;5056367;28;20045;-73
2022/06/13 07:00:11;;;;;;;4.72;0.90;;;16.70;99.90;;;;;;5055870;28;20565;-73
2022/06/13 07:02:36;;;;;;;6.50;1.13;;;16.80;99.90;;;;;;5055242;28;20083;-73
2022/06/13 07:05:06;;;;;;;6.07;0.93;;;16.70;99.90;;;;;;5054648;28;20453;-73
2022/06/13 07:07:31;;;;;;;3.28;0.77;;;16.70;99.90;;;;;;5070551;28;20462;-72
2022/06/13 07:09:57;;;;;;;7.90;0.98;;;16.70;99.90;;;;;;5055186;28;20132;-72
2022/06/13 07:12:23;;;;;;;7.47;0.85;;;16.60;99.90;;;;;;5055713;28;20470;-73
2022/06/13 07:14:49;;;;;;;5.20;1.10;;;16.70;99.90;;;;;;5068283;28;20048;-70
2022/06/13 07:17:15;;;;;;;5.72;1.35;;;16.60;99.90;;;;;;5074711;28;20045;-72
2022/06/13 07:19:45;;;;;;;10.73;1.52;;;16.50;99.90;;;;;;5074968;28;20094;-72
2022/06/13 07:22:17;;;;;;;5.18;1.13;;;16.30;99.90;;;;;;5075548;28;20040;-71
2022/06/13 07:24:45;;;;;;;4.63;1.20;;;16.00;99.90;;;;;;5075697;28;20044;-72
2022/06/13 07:27:11;;;;;;;8.23;1.20;;;15.90;99.90;;;;;;5075547;28;20055;-72
2022/06/13 07:29:37;;;;;;;5.95;1.40;;;15.90;99.90;;;;;;5075914;28;20059;-72
2022/06/13 07:32:08;;;;;;;8.13;1.30;;;15.90;99.90;;;;;;5075681;28;20395;-72
2022/06/13 07:34:36;;;;;;;6.95;1.33;;;15.90;99.90;;;;;;5074382;28;20051;-71
2022/06/13 07:37:04;;;;;;;9.68;1.95;;;15.90;99.90;;;;;;5075208;28;20483;-71
2022/06/13 07:39:30;;;;;;;8.45;2.00;;;16.00;99.90;;;;;;5074063;28;20060;-72
2022/06/13 07:41:57;;;;;;;8.18;1.70;;;15.90;99.90;;;;;;5074251;28;20044;-71
2022/06/13 07:44:41;;;;;;;10.40;2.17;;;16.00;99.90;;;;;;5073837;28;20087;-71
2022/06/13 07:47:08;;;;;;;4.25;0.90;;;15.80;99.90;;;;;;5074858;28;20122;-71
2022/06/13 07:49:34;;;;;;;6.22;1.23;;;15.60;99.90;;;;;;5057926;28;20044;-71
2022/06/13 07:52:00;;;;;;;5.72;0.85;;;15.70;99.90;;;;;;5074016;28;20403;-72
2022/06/13 07:54:26;;;;;;;6.47;1.02;;;15.90;99.90;;;;;;5078853;28;20055;-72
2022/06/13 07:56:51;;;;;;;9.10;1.15;;;16.10;99.90;;;;;;5075064;28;20059;-72
2022/06/13 07:59:19;;;;;;;5.45;1.00;;;16.30;99.90;;;;;;5074894;28;20131;-72
2022/06/13 08:01:45;;;;;;;9.88;1.55;;;16.40;99.90;;;;;;5074797;28;20494;-72
2022/06/13 08:04:12;;;;;;;7.68;1.73;;;16.60;99.90;;;;;;5074783;28;20088;-72
2022/06/13 08:06:42;;;;;;;8.85;1.13;;;16.80;99.90;;;;;;5073572;28;20472;-72
2022/06/13 08:09:09;;;;;;;5.93;1.45;;;17.10;99.90;;;;;;5074794;28;20056;-73
2022/06/13 08:11:39;;;;;;;11.82;1.48;;;17.30;99.90;;;;;;5073675;28;20052;-72
2022/06/13 08:14:06;;;;;;;4.55;0.88;;;17.40;99.90;;;;;;5057035;28;20127;-72
2022/06/13 08:16:34;;;;;;;8.77;1.30;;;17.40;99.90;;;;;;5072980;28;20381;-72
2022/06/13 08:19:03;;;;;;;4.53;0.77;;;17.30;99.90;;;;;;5074455;28;20045;-73
2022/06/13 08:21:29;;;;;;;3.55;0.90;;;17.10;99.90;;;;;;5073364;28;20116;-72
2022/06/13 08:23:55;;;;;;;8.40;0.95;;;17.10;99.90;;;;;;5072920;28;20434;-72
2022/06/13 08:26:21;;;;;;;3.88;0.40;;;16.90;99.90;;;;;;5056846;28;20060;-72
2022/06/13 08:28:46;;;;;;;6.30;0.75;;;17.00;99.90;;;;;;5073863;28;20048;-74
2022/06/13 08:31:15;;;;;;;4.45;0.73;;;17.10;99.90;;;;;;5073137;28;20130;-72
2022/06/13 08:33:41;;;;;;;5.82;0.60;;;17.30;99.90;;;;;;5072620;28;20052;-73
2022/06/13 08:36:08;;;;;;;5.10;0.75;;;17.40;99.90;;;;;;5063117;28;20148;-72
2022/06/13 08:38:34;;;;;;;7.40;0.65;;;17.40;99.90;;;;;;5066523;28;20139;-72
2022/06/13 08:41:14;;;;;;;7.78;1.00;;;17.50;99.90;;;;;;5070419;28;20561;-72
2022/06/13 08:43:49;;;;;;;8.63;0.68;;;17.50;99.90;;;;;;5053907;28;20063;-73
2022/06/13 08:46:18;;;;;;;5.90;0.73;;;17.50;99.90;;;;;;5068794;28;20115;-72
2022/06/13 08:48:47;;;;;;;6.88;0.98;;;17.50;99.90;;;;;;5067675;28;20522;-72
2022/06/13 08:51:25;;;;;;;4.63;0.80;;;17.70;99.90;;;;;;5068110;28;20098;-72
2022/06/13 08:54:00;;;;;;;5.00;0.70;;;17.90;99.90;;;;;;5080595;28;20383;-72
2022/06/13 08:56:30;;;;;;;4.80;0.60;;;17.90;99.90;;;;;;5070190;28;20451;-72
2022/06/13 08:59:24;;;;;;;11.00;1.50;;;18.10;99.90;;;;;;5071653;28;20114;-72
2022/06/13 09:01:59;;;;;;;6.55;0.82;;;18.40;99.90;;;;;;5061533;28;20049;-72
2022/06/13 09:04:42;;;;;;;4.60;0.73;;;18.40;99.90;;;;;;5048485;28;20052;-73
2022/06/13 09:07:29;;;;;;;6.25;0.90;;;18.30;99.90;;;;;;5072334;28;20149;-72
2022/06/13 09:10:01;;;;;;;4.80;0.70;;;18.10;99.90;;;;;;5065400;28;20120;-71
2022/06/13 09:12:33;;;;;;;6.35;0.90;;;17.70;99.90;;;;;;5052504;28;20515;-72
2022/06/13 09:15:09;;;;;;;5.22;0.80;;;17.50;99.90;;;;;;5053627;28;20055;-72
2022/06/13 09:17:47;;;;;;;7.13;1.27;;;17.50;99.90;;;;;;5052675;28;20045;-72
2022/06/13 09:20:22;;;;;;;8.68;0.85;;;17.40;99.90;;;;;;5067553;28;20115;-72
2022/06/13 09:23:12;;;;;;;5.40;0.90;;;17.30;99.90;;;;;;5073682;28;20063;-72
2022/06/13 09:25:45;;;;;;;6.47;0.77;;;17.70;99.90;;;;;;5070859;28;20123;-72
2022/06/13 09:28:49;;;;;;;8.23;0.90;;;18.00;99.90;;;;;;5073583;28;20044;-72
2022/06/13 09:31:38;;;;;;;3.80;0.80;;;18.10;99.90;;;;;;5071873;28;20384;-71
2022/06/13 09:34:18;;;;;;;6.07;0.70;;;18.00;99.90;;;;;;5073290;28;20049;-71
2022/06/13 09:37:00;;;;;;;8.52;0.95;;;18.10;99.90;;;;;;5073556;28;20056;-73
2022/06/13 09:39:26;;;;;;;8.70;1.05;;;18.30;99.90;;;;;;5089677;28;20119;-93
2022/06/13 09:42:16;;;;;;;8.85;1.27;;;18.30;99.90;;;;;;5040268;28;20132;-95
2022/06/13 09:45:15;;;;;;;10.32;1.40;;;18.10;99.90;;;;;;5057235;28;20044;-73
2022/06/13 09:47:56;;;;;;;8.88;1.20;;;17.90;99.90;;;;;;5068998;28;20056;-72
2022/06/13 09:50:45;;;;;;;7.07;1.02;;;18.00;99.90;;;;;;5073294;28;20490;-72
2022/06/13 09:53:25;;;;;;;8.23;1.00;;;18.10;99.90;;;;;;5072777;28;20491;-72
2022/06/13 09:55:58;;;;;;;7.88;1.10;;;17.90;99.90;;;;;;5072000;28;20051;-72
2022/06/13 09:59:09;;;;;;;12.73;1.23;;;18.00;99.90;;;;;;5069823;28;20505;-73
2022/06/13 10:01:59;;;;;;;6.65;0.93;;;18.10;99.90;;;;;;5053137;28;20370;-75
2022/06/13 10:04:30;;;;;;;11.52;1.67;;;18.20;99.90;;;;;;5052736;28;20510;-71
2022/06/13 10:07:17;;;;;;;7.05;0.95;;;18.30;99.90;;;;;;5053218;28;20051;-83
2022/06/13 10:09:59;;;;;;;8.27;1.10;;;17.80;99.90;;;;;;5052729;28;20045;-87
2022/06/13 10:12:33;;;;;;;6.03;1.05;;;17.70;99.90;;;;;;5083589;28;20045;-88
2022/06/13 10:15:04;;;;;;;13.27;1.75;;;17.50;99.90;;;;;;5067717;28;20044;-85
2022/06/13 10:17:49;;;;;;;12.40;1.20;;;17.30;99.90;;;;;;5060811;28;20118;-82
2022/06/13 10:20:29;;;;;;;10.02;2.00;;;17.30;99.90;;;;;;5072381;28;20045;-73
2022/06/13 10:22:59;;;;;;;11.00;1.25;;;17.30;99.90;;;;;;5056956;28;20051;-71
2022/06/13 10:25:41;;;;;;;9.77;1.40;;;17.40;99.90;;;;;;5076114;28;20446;-73
2022/06/13 10:28:37;;;;;;;7.30;1.55;;;17.60;99.90;;;;;;5076196;28;20045;-79
2022/06/13 10:31:25;;;;;;;9.02;1.40;;;18.10;99.90;;;;;;5071518;28;20044;-72
2022/06/13 10:34:09;;;;;;;9.60;1.23;;;18.60;99.90;;;;;;5070737;28;20055;-71
2022/06/13 10:36:54;;;;;;;6.45;0.90;;;19.00;99.90;;;;;;5076111;28;20075;-75
2022/06/13 10:39:24;;;;;;;9.27;1.02;;;18.80;99.90;;;;;;5075414;28;20080;-72
2022/06/13 10:41:56;;;;;;;10.70;1.48;;;18.50;99.90;;;;;;5076013;28;20119;-71
2022/06/13 10:44:23;;;;;;;10.40;1.35;;;18.40;99.90;;;;;;5092565;28;20048;-72
2022/06/13 10:47:01;;;;;;;6.78;1.90;;;18.60;99.90;;;;;;5074855;28;20052;-70
2022/06/13 10:49:51;;;;;;;11.82;1.13;;;18.60;99.90;;;;;;5075980;28;20044;-70
2022/06/13 10:52:23;;;;;;;7.82;1.02;;;18.70;99.90;;;;;;5076256;28;20045;-70
2022/06/13 10:55:00;;;;;;;8.55;1.17;;;19.00;99.90;;;;;;5075630;28;20067;-70
2022/06/13 10:57:29;;;;;;;7.53;1.05;;;19.50;99.90;;;;;;5076055;28;20052;-70
2022/06/13 11:00:28;;;;;;;5.20;1.00;;;19.70;99.90;;;;;;5076027;28;20094;-70
2022/06/13 11:03:15;;;;;;;6.55;1.50;;;19.20;99.90;;;;;;5063651;28;20063;-70
2022/06/13 11:06:01;;;;;;;9.52;1.40;;;18.80;99.90;;;;;;5075852;28;20047;-69
2022/06/13 11:08:27;;;;;;;4.78;1.20;;;18.70;99.90;;;;;;5076076;28;20045;-70
2022/06/13 11:11:17;;;;;;;10.18;1.77;;;18.50;99.90;;;;;;5075894;28;20088;-70
2022/06/13 11:13:53;;;;;;;11.38;1.63;;;18.20;99.90;;;;;;5076079;28;20407;-70
2022/06/13 11:22:45;;;;;;;10.57;1.60;;;18.60;99.90;;;;;;5075822;28;20131;-70
2022/06/13 11:25:19;;;;;;;10.93;1.80;;;18.20;99.90;;;;;;5075109;28;20056;-69
2022/06/13 11:27:48;;;;;;;11.57;1.98;;;18.30;99.90;;;;;;5076293;28;20052;-70
2022/06/13 11:30:29;;;;;;;7.45;1.17;;;18.80;99.90;;;;;;5092915;28;20049;-70
2022/06/13 11:33:18;;;;;;;7.85;1.05;;;19.10;99.90;;;;;;5075345;28;20376;-70
2022/06/13 11:35:58;;;;;;;13.75;1.90;;;19.20;99.90;;;;;;5075801;28;20056;-70
2022/06/13 11:38:29;;;;;;;9.43;1.20;;;19.10;99.90;;;;;;5075641;28;20040;-70
2022/06/13 11:41:01;;;;;;;8.55;1.30;;;19.40;99.90;;;;;;5075874;28;20111;-70
2022/06/13 11:43:45;;;;;;;6.22;1.13;;;19.20;99.90;;;;;;5073859;28;20399;-71
2022/06/13 11:46:47;;;;;;;8.75;1.80;;;19.70;99.90;;;;;;5074616;28;20044;-69
2022/06/13 11:49:15;;;;;;;9.13;1.25;;;20.10;99.90;;;;;;5075235;28;20560;-70
2022/06/13 11:52:11;;;;;;;6.63;1.00;;;20.30;99.90;;;;;;5075143;28;20052;-69
2022/06/13 11:54:55;;;;;;;9.85;1.60;;;20.00;99.90;;;;;;5075090;28;20044;-71
2022/06/13 11:57:24;;;;;;;10.40;1.25;;;20.00;99.90;;;;;;5057642;28;20049;-70
2022/06/13 12:00:12;;;;;;;7.55;1.67;;;20.10;99.90;;;;;;5074926;28;20110;-71
2022/06/13 12:02:50;;;;;;;9.73;1.17;;;19.90;99.90;;;;;;5074769;28;20544;-72
2022/06/13 12:05:32;;;;;;;8.15;1.40;;;19.60;99.90;;;;;;5074955;28;20476;-72
2022/06/13 12:08:21;;;;;;;13.52;1.33;;;19.40;99.90;;;;;;5074643;28;20045;-72
2022/06/13 12:10:56;;;;;;;10.05;1.35;;;19.30;99.90;;;;;;5074809;28;20195;-72
2022/06/13 12:13:29;;;;;;;10.00;1.25;;;19.20;99.90;;;;;;5074714;28;20052;-72
2022/06/13 12:16:07;;;;;;;6.90;1.40;;;19.40;99.90;;;;;;5074408;28;20045;-72
2022/06/13 12:18:57;;;;;;;11.68;1.88;;;19.10;99.90;;;;;;5057184;28;20048;-70
2022/06/13 12:21:36;;;;;;;10.25;1.60;;;19.00;99.90;;;;;;5074617;28;20052;-70
2022/06/13 12:24:12;;;;;;;12.88;1.40;;;18.70;99.90;;;;;;5074221;28;20057;-69
2022/06/13 12:26:48;;;;;;;11.88;1.70;;;18.80;99.90;;;;;;5073571;28;20057;-70
2022/06/13 12:29:20;;;;;;;7.38;0.88;;;19.00;99.90;;;;;;5073275;28;20051;-70
2022/06/13 12:31:57;;;;;;;10.82;1.30;;;19.30;99.90;;;;;;5074415;28;20062;-69
2022/06/13 12:34:52;;;;;;;12.82;1.38;;;19.10;99.90;;;;;;5074704;28;20044;-70
2022/06/13 12:37:38;;;;;;;16.15;1.77;;;19.20;99.90;;;;;;5074151;28;20056;-69
2022/06/13 12:40:36;;;;;;;9.80;1.52;;;19.30;99.90;;;;;;5056649;28;20048;-71
2022/06/13 12:43:40;;;;;;;14.18;1.30;;;19.50;99.90;;;;;;5072366;28;20048;-71
2022/06/13 12:46:27;;;;;;;10.10;2.25;;;19.60;99.70;;;;;;5073268;28;20123;-72
2022/06/13 12:49:01;;;;;;;8.05;1.20;;;19.20;99.90;;;;;;5074115;28;20056;-72
2022/06/13 12:51:51;;;;;;;11.35;1.88;;;19.00;99.90;;;;;;5073834;28;20182;-72
2022/06/13 12:54:49;;;;;;;10.88;1.20;;;18.90;99.90;;;;;;5089727;28;20059;-74
2022/06/13 12:57:21;;;;;;;5.93;0.95;;;19.10;99.90;;;;;;5073279;28;20103;-73
2022/06/13 13:00:05;;;;;;;6.43;0.70;;;19.10;99.90;;;;;;5072428;28;20079;-72
2022/06/13 13:02:35;;;;;;;8.52;0.90;;;19.10;99.90;;;;;;5055776;28;20406;-72
2022/06/13 13:05:19;;;;;;;6.15;1.10;;;19.00;99.90;;;;;;5073841;28;20055;-72
2022/06/13 13:08:22;;;;;;;6.43;1.13;;;19.10;99.90;;;;;;5073663;28;20044;-73
2022/06/13 13:10:54;;;;;;;9.77;0.98;;;19.60;99.90;;;;;;5073844;28;20048;-73
2022/06/13 13:13:55;;;;;;;10.45;1.67;;;19.90;99.90;;;;;;5072208;28;20084;-73
2022/06/13 13:16:53;;;;;;;5.70;0.80;;;19.80;99.90;;;;;;5050644;28;20048;-76
2022/06/13 13:19:43;;;;;;;10.10;1.40;;;19.90;99.90;;;;;;5071233;28;20064;-79
2022/06/13 13:22:21;;;;;;;5.55;0.60;;;19.60;99.90;;;;;;5072276;28;20048;-74
2022/06/13 13:25:08;;;;;;;4.45;0.80;;;19.60;99.90;;;;;;5073270;28;20143;-74
2022/06/13 13:27:56;;;;;;;;;;;19.60;99.90;;;;;;5074206;28;20100;-74
2022/06/13 13:30:47;;;;;;;5.03;0.60;;;19.80;99.90;;;;;;5067573;28;19974;-73
2022/06/13 13:33:31;;;;;;;3.83;0.55;;;19.50;99.90;;;;;;5073646;28;20051;-73
2022/06/13 13:36:03;;;;;;;3.90;0.60;;;19.50;99.80;;;;;;5073663;28;20588;-74
2022/06/13 13:38:43;;;;;;;6.05;1.13;;;19.60;99.90;;;;;;5072339;28;20084;-75
2022/06/13 13:41:27;;;;;;;4.85;0.70;;;20.10;99.90;;;;;;5073905;28;20044;-74
2022/06/13 13:44:16;;;;;;;4.97;0.80;;;20.50;99.90;;;;;;5073237;28;20044;-71